Time;durP1;ratioP1;P1;durP2;ratioP2;P2;SDS_P1;SDS_P2;PMS_P1;PMS_P2;Temp;Humidity;BMP_temperature;BMP_pressure;BME280_temperature;BME280_humidity;BME280_pressure;Samples;Min_cycle;Max_cycle;Signal;HPM_P1;HPM_P2
2023/05/03 00:01:18;;;;;;;9.33;3.98;;;;;;;5.63;86.66;101159.45;1747439;82;21231;-79
2023/05/03 00:04:25;;;;;;;20.75;5.78;;;;;;;5.60;86.73;101153.42;1747251;82;21184;-79
2023/05/03 00:07:30;;;;;;;12.80;6.28;;;;;;;5.59;87.06;101155.25;1748197;82;21216;-79
2023/05/03 00:10:36;;;;;;;9.88;4.42;;;;;;;5.59;86.43;101151.67;1748760;82;21179;-79
2023/05/03 00:13:41;;;;;;;19.77;8.38;;;;;;;5.57;86.96;101153.66;1748798;82;21188;-79
2023/05/03 00:16:48;;;;;;;14.47;5.17;;;;;;;5.53;86.91;101153.04;1748851;82;21185;-79
2023/05/03 00:19:55;;;;;;;7.17;4.10;;;;;;;5.53;86.44;101161.67;1747628;82;21165;-79
2023/05/03 00:23:03;;;;;;;9.28;4.10;;;;;;;5.52;86.46;101173.03;1748019;82;21331;-79
2023/05/03 00:26:01;;;;;;;11.00;3.83;;;;;;;5.49;86.79;101174.62;1748712;82;21775;-79
2023/05/03 00:28:55;;;;;;;8.55;4.75;;;;;;;5.46;86.49;101173.53;1758472;81;22137;-79
2023/05/03 00:31:42;;;;;;;8.83;4.62;;;;;;;5.48;86.04;101178.83;1767888;81;21274;-79
2023/05/03 00:34:49;;;;;;;4.65;2.98;;;;;;;5.48;85.51;101175.61;1767642;81;21178;-79
2023/05/03 00:37:47;;;;;;;7.95;2.90;;;;;;;5.50;84.98;101175.48;1766471;81;21226;-79
2023/05/03 00:40:40;;;;;;;5.70;3.30;;;;;;;5.52;84.49;101181.17;1768024;81;21195;-79
2023/05/03 00:43:45;;;;;;;4.80;3.08;;;;;;;5.55;84.53;101174.61;1741913;81;21204;-79
2023/05/03 00:46:51;;;;;;;8.70;3.85;;;;;;;5.57;84.13;101177.59;1721881;83;21200;-79
2023/05/03 00:49:57;;;;;;;4.42;2.70;;;;;;;5.59;84.42;101180.17;1721250;83;21353;-79
2023/05/03 00:53:04;;;;;;;12.20;3.60;;;;;;;5.55;84.95;101190.90;1721933;83;21223;-79
2023/05/03 00:56:10;;;;;;;4.50;3.20;;;;;;;5.50;84.88;101186.34;1722144;83;21191;-79
2023/05/03 00:59:16;;;;;;;7.72;3.40;;;;;;;5.47;85.37;101190.67;1700774;83;21230;-79
2023/05/03 01:02:23;;;;;;;8.18;3.80;;;;;;;5.41;85.59;101185.70;1723608;83;21200;-79
2023/05/03 01:05:30;;;;;;;3.80;2.90;;;;;;;5.36;86.07;101182.89;1723618;83;21733;-79
2023/05/03 01:08:53;;;;;;;7.55;3.50;;;;;;;5.30;86.64;101183.36;1722998;83;21228;-79
2023/05/03 01:12:23;;;;;;;5.92;3.25;;;;;;;5.25;87.32;101189.64;1698907;83;21220;-79
2023/05/03 01:15:42;;;;;;;5.63;3.53;;;;;;;5.21;87.86;101190.86;1731754;81;21187;-79
2023/05/03 01:18:48;;;;;;;7.03;3.62;;;;;;;5.17;88.17;101194.80;1730928;83;21208;-78
2023/05/03 01:21:57;;;;;;;5.78;4.45;;;;;;;5.11;88.24;101186.66;1730931;83;21240;-79
2023/05/03 01:25:16;;;;;;;6.15;3.35;;;;;;;5.08;88.57;101191.44;1730930;83;21213;-79
2023/05/03 01:28:22;;;;;;;6.87;3.40;;;;;;;5.04;88.79;101194.91;1730810;83;21811;-79
2023/05/03 01:31:59;;;;;;;6.37;3.50;;;;;;;4.99;89.22;101186.77;1729539;83;21213;-78
2023/05/03 01:35:19;;;;;;;10.43;3.30;;;;;;;4.96;89.68;101182.92;1731793;83;21161;-79
2023/05/03 01:38:25;;;;;;;5.25;3.42;;;;;;;4.90;90.07;101181.56;1731176;83;21181;-79
2023/05/03 01:41:32;;;;;;;4.72;3.37;;;;;;;4.86;90.28;101182.77;1729450;83;21747;-78
2023/05/03 01:44:38;;;;;;;5.20;3.52;;;;;;;4.83;90.54;101182.50;1730825;83;21224;-79
2023/05/03 01:47:44;;;;;;;5.05;3.47;;;;;;;4.85;90.70;101189.19;1729588;83;21188;-79
2023/05/03 01:50:51;;;;;;;9.23;3.02;;;;;;;4.83;90.83;101187.92;1730036;83;21193;-79
2023/05/03 01:53:58;;;;;;;7.17;3.02;;;;;;;4.75;91.21;101193.09;1730684;83;21216;-79
2023/05/03 01:57:04;;;;;;;7.47;3.33;;;;;;;4.72;91.48;101193.81;1729678;83;21184;-79
2023/05/03 02:00:10;;;;;;;5.72;3.58;;;;;;;4.66;91.77;101195.16;1730277;83;21220;-78
2023/05/03 02:03:16;;;;;;;7.72;3.92;;;;;;;4.64;92.10;101190.32;1730946;83;21200;-79
2023/05/03 02:06:21;;;;;;;8.93;4.00;;;;;;;4.63;92.12;101192.66;1730634;83;21189;-78
2023/05/03 02:09:27;;;;;;;7.15;4.15;;;;;;;4.71;91.75;101192.95;1730694;83;21204;-79
2023/05/03 02:12:33;;;;;;;4.80;3.45;;;;;;;4.67;91.80;101193.30;1741100;82;21759;-79
2023/05/03 02:15:40;;;;;;;7.35;3.10;;;;;;;4.64;92.17;101203.01;1743938;82;21719;-79
2023/05/03 02:18:47;;;;;;;10.95;3.37;;;;;;;4.62;92.28;101207.20;1744375;82;21536;-78
2023/05/03 02:21:39;;;;;;;;;;;;;;;4.62;92.22;101203.14;1745405;82;21179;-79
2023/05/03 02:24:49;;;;;;;5.28;3.80;;;;;;;4.60;92.29;101205.94;1743664;82;20222;-78
2023/05/03 02:27:55;;;;;;;7.53;4.42;;;;;;;4.55;92.59;101205.92;1744051;82;21161;-79
2023/05/03 02:31:04;;;;;;;7.12;5.00;;;;;;;4.57;92.99;101215.67;1743314;82;21215;-78
2023/05/03 02:34:10;;;;;;;8.28;5.33;;;;;;;4.59;93.30;101213.70;1743970;82;21310;-78
2023/05/03 02:37:16;;;;;;;14.98;5.10;;;;;;;4.73;93.48;101211.30;1743898;82;21167;-79
2023/05/03 02:40:22;;;;;;;14.28;6.03;;;;;;;4.99;93.28;101213.39;1732181;82;21211;-79
2023/05/03 02:43:28;;;;;;;7.78;4.30;;;;;;;5.30;92.51;101217.27;1744111;82;21778;-78
2023/05/03 02:46:33;;;;;;;6.90;5.17;;;;;;;5.71;91.64;101219.05;1743975;82;21180;-79
2023/05/03 02:49:41;;;;;;;10.95;6.30;;;;;;;6.06;90.45;101213.50;1742611;82;21160;-79
2023/05/03 02:52:40;;;;;;;23.97;6.00;;;;;;;6.36;89.34;101219.65;1744270;82;21196;-78
2023/05/03 02:55:47;;;;;;;18.75;6.22;;;;;;;6.68;88.50;101223.77;1743208;82;21433;-78
2023/05/03 02:58:54;;;;;;;21.57;6.08;;;;;;;7.04;87.45;101224.33;1743900;82;21183;-78
2023/05/03 03:02:00;;;;;;;25.70;6.60;;;;;;;7.39;86.34;101222.16;1742635;82;21180;-79
2023/05/03 03:05:07;;;;;;;17.52;5.67;;;;;;;7.88;84.90;101223.27;1743967;82;21176;-79
2023/05/03 03:08:15;;;;;;;16.82;4.75;;;;;;;8.25;83.55;101223.20;1745056;82;21285;-78
2023/05/03 03:11:22;;;;;;;14.18;5.08;;;;;;;8.38;82.61;101230.66;1742998;82;21766;-79
2023/05/03 03:14:28;;;;;;;16.82;5.03;;;;;;;8.54;81.39;101231.47;1743772;82;21179;-79
2023/05/03 03:17:37;;;;;;;20.57;4.95;;;;;;;8.68;80.25;101233.28;1743863;82;21176;-79
2023/05/03 03:20:41;;;;;;;22.07;5.65;;;;;;;8.82;79.95;101232.01;1743874;82;21212;-79
2023/05/03 03:23:47;;;;;;;18.90;5.92;;;;;;;8.96;79.91;101239.77;1743875;82;21188;-79
2023/05/03 03:26:53;;;;;;;14.58;4.90;;;;;;;9.10;78.68;101241.71;1742851;82;21262;-79
2023/05/03 03:30:00;;;;;;;9.10;5.17;;;;;;;9.21;77.44;101247.01;1744190;82;21184;-79
2023/05/03 03:33:08;;;;;;;21.15;5.25;;;;;;;9.40;77.18;101248.86;1742609;82;21223;-79
2023/05/03 03:36:14;;;;;;;8.95;5.30;;;;;;;9.67;77.12;101249.45;1742437;80;21184;-79
2023/05/03 03:39:19;;;;;;;17.57;4.90;;;;;;;9.86;76.83;101248.03;1743917;82;21176;-79
2023/05/03 03:42:26;;;;;;;15.90;5.20;;;;;;;10.09;77.35;101250.40;1742408;82;21215;-79
2023/05/03 03:45:31;;;;;;;12.47;5.03;;;;;;;10.32;77.20;101257.23;1744004;82;21227;-79
2023/05/03 03:48:37;;;;;;;19.00;6.40;;;;;;;10.36;78.14;101259.16;1744021;82;21223;-79
2023/05/03 03:51:43;;;;;;;8.78;5.33;;;;;;;10.40;79.00;101254.61;1743773;82;21204;-79
2023/05/03 03:54:50;;;;;;;23.47;6.58;;;;;;;10.49;80.05;101259.16;1744019;82;21318;-79
2023/05/03 03:57:57;;;;;;;11.85;7.00;;;;;;;10.61;80.68;101259.80;1743973;82;21735;-79
2023/05/03 04:00:59;;;;;;;16.87;6.37;;;;;;;10.77;80.57;101265.09;1741515;80;21194;-79
2023/05/03 04:04:06;;;;;;;16.85;6.37;;;;;;;10.93;80.85;101263.91;1741148;82;21246;-79
2023/05/03 04:07:12;;;;;;;13.50;6.40;;;;;;;11.13;80.86;101260.50;1741119;82;21190;-79
2023/05/03 04:10:19;;;;;;;15.08;5.72;;;;;;;11.19;80.24;101263.97;1741066;82;21238;-79
2023/05/03 04:13:26;;;;;;;15.38;5.55;;;;;;;11.29;80.68;101263.38;1736111;82;21226;-79
2023/05/03 04:16:32;;;;;;;12.23;5.28;;;;;;;11.46;80.76;101254.28;1732118;83;21732;-79
2023/05/03 04:19:38;;;;;;;10.68;4.97;;;;;;;11.62;80.01;101255.42;1732164;83;21235;-79
2023/05/03 04:22:44;;;;;;;13.10;6.15;;;;;;;11.72;77.70;101250.72;1731512;83;21807;-79
2023/05/03 04:25:52;;;;;;;15.60;5.95;;;;;;;11.73;76.50;101255.17;1732022;83;21187;-79
2023/05/03 04:28:59;;;;;;;18.73;6.53;;;;;;;11.78;76.55;101256.92;1730254;83;21565;-79
2023/05/03 04:32:05;;;;;;;16.65;6.10;;;;;;;12.00;76.41;101262.41;1730039;83;21506;-78
2023/05/03 04:35:12;;;;;;;13.25;5.42;;;;;;;12.27;75.80;101258.59;1732363;83;21180;-79
2023/05/03 04:38:19;;;;;;;14.73;6.17;;;;;;;12.53;75.05;101259.39;1731554;83;21157;-78
2023/05/03 04:41:26;;;;;;;13.03;5.30;;;;;;;12.77;74.15;101265.47;1710283;83;21227;-78
2023/05/03 04:44:32;;;;;;;31.45;5.30;;;;;;;12.91;72.05;101265.33;1731988;83;21188;-79
2023/05/03 04:47:39;;;;;;;16.10;5.75;;;;;;;13.03;71.43;101274.98;1731688;83;21192;-79
2023/05/03 04:50:45;;;;;;;16.62;4.90;;;;;;;13.33;70.16;101275.38;1731926;83;21750;-79
2023/05/03 04:53:52;;;;;;;14.68;5.08;;;;;;;13.51;68.34;101278.83;1730622;83;21224;-79
2023/05/03 04:56:57;;;;;;;10.18;4.37;;;;;;;13.73;66.64;101274.50;1730171;83;21220;-78
2023/05/03 05:00:09;;;;;;;14.30;4.62;;;;;;;13.95;64.66;101277.05;1730232;83;21231;-79
2023/05/03 05:03:14;;;;;;;13.18;4.50;;;;;;;14.17;62.98;101282.86;1731223;83;21302;-78
2023/05/03 05:06:19;;;;;;;8.33;4.28;;;;;;;14.37;62.07;101277.80;1731420;83;21486;-79
2023/05/03 05:09:31;;;;;;;14.63;4.40;;;;;;;14.56;61.81;101287.05;1731325;83;21176;-78
2023/05/03 05:12:29;;;;;;;8.98;4.08;;;;;;;14.71;62.90;101288.52;1717742;81;21296;-79
2023/05/03 05:15:33;;;;;;;10.98;3.98;;;;;;;14.85;60.74;101291.03;1733160;81;21192;-79
2023/05/03 05:18:40;;;;;;;9.60;3.50;;;;;;;14.94;58.98;101292.70;1725978;80;21723;-80
2023/05/03 05:21:48;;;;;;;12.88;4.17;;;;;;;15.05;58.46;101287.63;1694642;81;21318;-80
2023/05/03 05:24:56;;;;;;;10.20;4.08;;;;;;;15.24;57.24;101291.84;1656983;86;21907;-78
2023/05/03 05:28:03;;;;;;;7.25;3.40;;;;;;;15.45;56.35;101293.91;1720915;81;21834;-79
2023/05/03 05:31:08;;;;;;;7.78;3.25;;;;;;;15.62;55.00;101291.00;1729039;83;21661;-79
2023/05/03 05:34:18;;;;;;;6.55;2.95;;;;;;;15.72;54.11;101292.51;1720535;83;21196;-79
2023/05/03 05:37:24;;;;;;;9.70;3.30;;;;;;;15.73;53.26;101295.59;1718959;83;21214;-79
2023/05/03 05:40:31;;;;;;;6.87;2.90;;;;;;;15.80;52.66;101293.79;1719695;83;21192;-79
2023/05/03 05:43:32;;;;;;;9.58;3.40;;;;;;;15.89;52.15;101294.58;1728810;83;21491;-79
2023/05/03 05:46:24;;;;;;;8.00;2.92;;;;;;;16.01;52.04;101297.23;1722633;83;21189;-79
2023/05/03 05:49:29;;;;;;;12.98;3.10;;;;;;;16.15;52.06;101289.16;1725231;81;21188;-79
2023/05/03 05:52:34;;;;;;;8.28;3.00;;;;;;;16.29;50.89;101282.78;1718254;83;21249;-79
2023/05/03 05:55:40;;;;;;;4.42;2.58;;;;;;;16.36;49.79;101284.58;1715441;81;21204;-79
2023/05/03 05:58:45;;;;;;;7.80;2.60;;;;;;;16.46;49.60;101291.19;1720093;81;21231;-79
2023/05/03 06:01:51;;;;;;;6.95;2.67;;;;;;;16.57;49.96;101293.48;1670247;83;22158;-80
2023/05/03 06:04:56;;;;;;;7.67;2.20;;;;;;;16.70;49.95;101291.92;1679789;83;22151;-79
2023/05/03 06:08:04;;;;;;;6.67;2.42;;;;;;;16.84;48.43;101289.70;1681969;83;21193;-79
2023/05/03 06:11:13;;;;;;;10.80;2.33;;;;;;;16.89;48.18;101291.37;1695296;81;21165;-79
2023/05/03 06:14:19;;;;;;;15.48;2.70;;;;;;;16.96;47.95;101289.54;1684410;82;21782;-80
2023/05/03 06:17:25;;;;;;;7.72;2.42;;;;;;;17.08;48.72;101286.61;1683333;82;21209;-79
2023/05/03 06:20:32;;;;;;;11.20;2.47;;;;;;;17.19;47.52;101287.14;1692709;82;21205;-78
2023/05/03 06:23:38;;;;;;;11.88;2.62;;;;;;;17.23;47.47;101287.08;1683251;82;22125;-80
2023/05/03 06:26:45;;;;;;;7.80;2.52;;;;;;;17.32;47.29;101285.91;1678758;84;21764;-79
2023/05/03 06:29:50;;;;;;;3.70;1.85;;;;;;;17.40;47.33;101291.28;1687604;83;21288;-79
2023/05/03 06:32:56;;;;;;;5.28;2.60;;;;;;;17.50;48.07;101289.07;1698015;84;21391;-79
2023/05/03 06:36:02;;;;;;;6.47;2.42;;;;;;;17.60;47.39;101293.73;1661672;83;21221;-79
2023/05/03 06:39:10;;;;;;;4.20;1.85;;;;;;;17.63;45.75;101290.55;1698329;84;21198;-79
2023/05/03 06:42:15;;;;;;;7.30;2.08;;;;;;;17.72;47.24;101290.42;1694614;82;21232;-79
2023/05/03 06:45:31;;;;;;;6.17;2.30;;;;;;;17.85;46.83;101286.42;1725160;81;21203;-79
2023/05/03 06:48:36;;;;;;;6.85;1.95;;;;;;;17.99;47.44;101291.00;1726417;81;21185;-80
2023/05/03 06:51:36;;;;;;;11.48;2.77;;;;;;;18.08;47.31;101291.70;1718282;81;21193;-80
2023/05/03 06:54:42;;;;;;;6.40;2.05;;;;;;;18.12;47.72;101285.56;1725608;81;21216;-80
2023/05/03 06:57:52;;;;;;;7.17;2.00;;;;;;;18.14;45.80;101288.13;1718492;81;21184;-79
2023/05/03 07:01:00;;;;;;;3.80;1.55;;;;;;;18.18;46.21;101290.81;1724952;81;21228;-80
2023/05/03 07:04:05;;;;;;;4.05;1.50;;;;;;;18.28;45.88;101290.45;1725890;82;21789;-80
2023/05/03 07:07:11;;;;;;;3.15;1.87;;;;;;;18.35;43.12;101286.67;1717960;81;21176;-80
2023/05/03 07:10:17;;;;;;;5.50;1.57;;;;;;;18.42;42.42;101278.39;1728115;81;21148;-80
2023/05/03 07:13:22;;;;;;;5.10;1.80;;;;;;;18.49;41.83;101285.34;1724297;81;21164;-80
2023/05/03 07:16:27;;;;;;;7.10;1.90;;;;;;;18.56;41.74;101290.41;1723255;80;21172;-79
2023/05/03 07:19:32;;;;;;;5.12;1.90;;;;;;;18.54;42.14;101292.00;1730910;80;21799;-79
2023/05/03 07:22:38;;;;;;;4.40;1.75;;;;;;;18.57;40.14;101290.19;1740039;80;21533;-80
2023/05/03 07:25:42;;;;;;;4.30;1.62;;;;;;;18.59;39.44;101290.86;1734501;80;21176;-79
2023/05/03 07:28:48;;;;;;;2.50;1.70;;;;;;;18.43;38.38;101282.02;1725616;80;21176;-79
2023/05/03 07:31:54;;;;;;;2.05;1.32;;;;;;;18.29;38.21;101288.00;1740919;80;21224;-79
2023/05/03 07:34:59;;;;;;;5.05;1.50;;;;;;;18.26;39.96;101285.13;1723696;80;21179;-79
2023/05/03 07:38:05;;;;;;;3.40;1.65;;;;;;;18.22;38.87;101282.44;1732771;80;21490;-79
2023/05/03 07:41:10;;;;;;;3.45;1.67;;;;;;;18.17;39.42;101284.95;1727105;82;21172;-79
2023/05/03 07:44:15;;;;;;;3.52;1.82;;;;;;;18.10;39.27;101286.81;1730365;80;21477;-79
2023/05/03 07:47:21;;;;;;;4.78;1.55;;;;;;;17.99;40.00;101284.61;1729800;80;21730;-80
2023/05/03 07:50:27;;;;;;;3.33;1.70;;;;;;;17.91;38.85;101291.14;1733618;80;21140;-80
2023/05/03 07:53:39;;;;;;;4.00;1.45;;;;;;;17.98;38.42;101285.14;1740471;80;21172;-80
2023/05/03 07:56:41;;;;;;;4.15;1.85;;;;;;;18.05;39.23;101287.95;1733996;81;21152;-80
2023/05/03 07:59:47;;;;;;;3.47;1.87;;;;;;;18.14;42.63;101283.44;1738518;80;21198;-81
2023/05/03 08:02:55;;;;;;;6.55;2.47;;;;;;;18.23;40.38;101286.91;1735814;80;21169;-80
2023/05/03 08:06:01;;;;;;;8.08;2.12;;;;;;;18.26;40.80;101287.05;1723292;80;21231;-80
2023/05/03 08:09:08;;;;;;;14.50;1.60;;;;;;;18.39;42.52;101282.95;1735367;80;21803;-81
2023/05/03 08:12:14;;;;;;;6.85;1.87;;;;;;;18.56;41.59;101282.09;1730200;81;21203;-81
2023/05/03 08:15:23;;;;;;;3.47;1.75;;;;;;;18.72;40.97;101288.69;1731692;80;21283;-80
2023/05/03 08:18:28;;;;;;;4.78;1.55;;;;;;;18.82;40.04;101285.03;1738802;81;21172;-81
2023/05/03 08:21:34;;;;;;;2.25;1.40;;;;;;;18.88;39.55;101280.56;1733111;80;21164;-80
2023/05/03 08:24:39;;;;;;;6.85;2.10;;;;;;;18.98;40.29;101278.25;1741172;80;21195;-79
2023/05/03 08:27:44;;;;;;;11.88;2.00;;;;;;;18.96;38.83;101278.13;1744740;80;21231;-79
2023/05/03 08:30:51;;;;;;;7.08;1.60;;;;;;;18.94;37.71;101274.72;1738142;81;21219;-79
2023/05/03 08:33:57;;;;;;;3.60;1.50;;;;;;;18.93;38.33;101276.64;1735726;80;21279;-79
2023/05/03 08:37:04;;;;;;;8.15;1.92;;;;;;;18.84;39.00;101277.34;1734419;80;21159;-80
2023/05/03 08:40:04;;;;;;;1.95;1.22;;;;;;;18.89;42.12;101272.57;1736908;81;21237;-80
2023/05/03 08:43:14;;;;;;;7.25;1.72;;;;;;;18.96;40.55;101273.46;1737923;80;21178;-80
2023/05/03 08:46:19;;;;;;;30.87;3.50;;;;;;;18.94;39.15;101275.56;1737189;80;21211;-79
2023/05/03 08:49:26;;;;;;;2.52;1.45;;;;;;;18.89;38.93;101275.34;1730095;80;21737;-78
2023/05/03 08:52:33;;;;;;;4.78;1.60;;;;;;;18.84;36.01;101275.96;1688487;84;21241;-79
2023/05/03 08:55:40;;;;;;;5.05;1.52;;;;;;;18.64;36.19;101265.30;1713780;82;21178;-78
2023/05/03 08:58:48;;;;;;;2.25;1.22;;;;;;;18.59;37.37;101260.37;1743737;80;21195;-78
2023/05/03 09:01:53;;;;;;;7.40;1.80;;;;;;;18.59;36.78;101259.53;1753468;80;21202;-79
2023/05/03 09:04:59;;;;;;;3.70;1.65;;;;;;;18.69;39.36;101260.03;1740350;80;21192;-79
2023/05/03 09:08:16;;;;;;;4.30;1.52;;;;;;;18.63;39.86;101260.80;1734487;82;21176;-80
2023/05/03 09:11:33;;;;;;;3.27;1.32;;;;;;;18.78;42.05;101259.32;1743546;81;21203;-78
2023/05/03 09:14:41;;;;;;;1.72;1.05;;;;;;;18.85;42.79;101255.49;1730905;80;21231;-78
2023/05/03 09:17:47;;;;;;;2.60;1.30;;;;;;;18.92;42.23;101251.91;1735720;80;21203;-78
2023/05/03 09:20:54;;;;;;;6.55;1.47;;;;;;;19.00;40.09;101256.70;1749282;80;21200;-78
2023/05/03 09:24:02;;;;;;;4.22;1.70;;;;;;;19.04;41.33;101255.23;1740572;79;21160;-79
2023/05/03 09:27:09;;;;;;;3.72;1.32;;;;;;;19.05;40.69;101246.38;1692402;84;21808;-80
2023/05/03 09:30:28;;;;;;;2.85;1.60;;;;;;;19.10;38.59;101247.98;1668659;82;21184;-79
2023/05/03 09:33:36;;;;;;;6.25;1.65;;;;;;;18.94;37.95;101240.92;1696122;82;21180;-79
2023/05/03 09:36:55;;;;;;;14.00;1.87;;;;;;;18.85;38.41;101240.78;1717596;82;21259;-79
2023/05/03 09:40:02;;;;;;;9.03;1.77;;;;;;;18.84;40.22;101231.61;1697856;83;21709;-79
2023/05/03 09:43:16;;;;;;;4.17;1.47;;;;;;;18.86;42.05;101232.78;1687595;83;21296;-79
2023/05/03 09:46:23;;;;;;;8.10;1.50;;;;;;;18.92;41.66;101230.59;1695811;82;21240;-79
2023/05/03 09:49:29;;;;;;;3.77;1.50;;;;;;;18.93;39.56;101232.82;1701630;82;21208;-79
2023/05/03 09:52:36;;;;;;;6.03;1.50;;;;;;;18.90;38.63;101232.69;1682317;83;21169;-80
2023/05/03 09:55:47;;;;;;;3.00;1.37;;;;;;;18.89;39.84;101229.07;1705551;83;21850;-79
2023/05/03 09:58:51;;;;;;;2.67;1.50;;;;;;;18.92;40.94;101227.81;1697452;82;21220;-79
2023/05/03 10:02:01;;;;;;;7.72;1.25;;;;;;;18.95;39.22;101232.06;1699733;82;21236;-78
2023/05/03 10:05:05;;;;;;;3.10;1.45;;;;;;;18.95;40.31;101230.14;1708913;83;21209;-79
2023/05/03 10:08:11;;;;;;;4.65;1.47;;;;;;;18.98;41.42;101232.51;1700173;82;21743;-79
2023/05/03 10:11:16;;;;;;;4.78;1.55;;;;;;;19.02;42.21;101235.72;1712690;83;21169;-79
2023/05/03 10:14:21;;;;;;;5.20;1.90;;;;;;;19.06;42.42;101233.70;1702062;83;21233;-79
2023/05/03 10:17:32;;;;;;;4.92;1.40;;;;;;;19.09;41.82;101229.64;1704137;83;21236;-79
2023/05/03 10:20:51;;;;;;;4.25;1.50;;;;;;;19.12;41.50;101228.70;1702213;83;22524;-78
2023/05/03 10:24:21;;;;;;;7.47;1.60;;;;;;;19.14;41.34;101226.56;1693009;82;21769;-79
2023/05/03 10:27:29;;;;;;;9.10;1.72;;;;;;;19.15;40.90;101224.13;1699807;84;21249;-80
2023/05/03 10:30:37;;;;;;;4.80;1.67;;;;;;;19.18;41.69;101222.84;1681961;83;21221;-80
2023/05/03 10:33:42;;;;;;;7.33;2.35;;;;;;;19.22;41.13;101222.74;1698745;82;21240;-80
2023/05/03 10:36:51;;;;;;;2.65;1.67;;;;;;;19.23;41.55;101216.66;1697735;84;21164;-80
2023/05/03 10:39:58;;;;;;;3.00;1.50;;;;;;;19.25;41.56;101221.48;1664903;83;21252;-80
2023/05/03 10:43:03;;;;;;;10.13;1.60;;;;;;;19.23;40.29;101213.35;1649172;83;21862;-80
2023/05/03 10:46:17;;;;;;;7.80;1.70;;;;;;;19.19;40.71;101220.92;1664332;84;21507;-79
2023/05/03 10:49:26;;;;;;;6.37;1.45;;;;;;;19.23;41.34;101218.05;1675693;82;21236;-79
2023/05/03 10:52:48;;;;;;;5.22;1.90;;;;;;;19.24;41.96;101218.36;1681121;83;21189;-79
2023/05/03 10:56:18;;;;;;;4.58;1.70;;;;;;;19.26;41.48;101218.48;1663166;85;21221;-79
2023/05/03 10:59:24;;;;;;;5.93;1.60;;;;;;;19.26;41.80;101206.54;1671484;83;21217;-79
2023/05/03 11:02:31;;;;;;;6.60;2.05;;;;;;;19.26;41.89;101215.71;1678871;83;21198;-79
2023/05/03 11:05:37;;;;;;;5.08;1.65;;;;;;;19.27;42.02;101217.41;1693607;84;21176;-79
2023/05/03 11:08:42;;;;;;;3.42;1.35;;;;;;;19.30;41.42;101216.16;1685791;83;21844;-79
2023/05/03 11:11:48;;;;;;;2.65;1.62;;;;;;;19.30;41.50;101213.37;1680752;85;22246;-79
2023/05/03 11:14:55;;;;;;;5.33;1.72;;;;;;;19.29;42.22;101217.19;1677271;85;21193;-79
2023/05/03 11:18:02;;;;;;;3.42;1.30;;;;;;;19.30;41.79;101211.45;1694211;84;21241;-79
2023/05/03 11:21:08;;;;;;;6.60;1.80;;;;;;;19.33;42.85;101204.61;1676337;84;21247;-79
2023/05/03 11:24:12;;;;;;;3.67;1.77;;;;;;;19.37;42.76;101205.36;1651855;84;21196;-79
2023/05/03 11:27:19;;;;;;;3.92;1.77;;;;;;;19.36;41.85;101202.81;1674354;84;21236;-80
2023/05/03 11:30:25;;;;;;;3.70;1.72;;;;;;;19.35;41.27;101199.19;1681154;83;21213;-79
2023/05/03 11:33:33;;;;;;;8.63;2.27;;;;;;;19.34;41.29;101198.02;1715398;83;22537;-79
2023/05/03 11:36:38;;;;;;;3.65;1.65;;;;;;;19.32;40.89;101194.59;1696593;83;21232;-79
2023/05/03 11:39:43;;;;;;;2.27;1.15;;;;;;;19.31;43.08;101192.89;1686314;84;21201;-79
2023/05/03 11:43:06;;;;;;;3.85;1.50;;;;;;;19.39;42.96;101197.70;1679675;84;21193;-79
2023/05/03 11:46:12;;;;;;;4.67;1.77;;;;;;;19.44;43.83;101194.28;1682610;83;21256;-79
2023/05/03 11:49:17;;;;;;;4.95;1.75;;;;;;;19.41;43.64;101194.16;1696043;84;21252;-80
2023/05/03 11:52:29;;;;;;;14.73;3.05;;;;;;;19.42;42.10;101199.17;1677704;83;21182;-79
2023/05/03 11:55:36;;;;;;;6.60;1.77;;;;;;;19.38;42.32;101197.89;1652513;86;22348;-79
2023/05/03 11:58:41;;;;;;;4.10;1.65;;;;;;;19.40;43.22;101193.00;1677834;84;21241;-79
2023/05/03 12:01:48;;;;;;;3.67;1.90;;;;;;;19.40;44.09;101184.67;1678992;83;21233;-79
2023/05/03 12:04:55;;;;;;;8.13;1.75;;;;;;;19.36;43.40;101182.86;1662644;82;21244;-79
2023/05/03 12:08:03;;;;;;;11.30;2.22;;;;;;;19.28;42.89;101177.51;1668966;83;21205;-79
2023/05/03 12:11:10;;;;;;;2.55;1.82;;;;;;;19.23;45.78;101181.99;1680241;85;21210;-78
2023/05/03 12:14:18;;;;;;;5.60;2.00;;;;;;;19.23;46.74;101184.77;1689735;84;21207;-78
2023/05/03 12:17:41;;;;;;;6.60;1.98;;;;;;;19.25;46.77;101177.11;1685178;84;21251;-79
2023/05/03 12:20:49;;;;;;;7.15;1.80;;;;;;;19.30;46.56;101173.16;1690510;84;21200;-79
2023/05/03 12:23:55;;;;;;;3.95;1.82;;;;;;;19.34;45.90;101171.67;1691867;82;21233;-78
2023/05/03 12:27:02;;;;;;;7.25;1.90;;;;;;;19.39;46.01;101172.73;1675441;84;21241;-79
2023/05/03 12:30:13;;;;;;;11.45;1.85;;;;;;;19.40;44.80;101173.58;1669841;86;21224;-79
2023/05/03 12:33:18;;;;;;;4.50;1.75;;;;;;;19.36;45.61;101171.77;1671101;86;21775;-79
2023/05/03 12:36:26;;;;;;;5.95;1.80;;;;;;;19.30;45.91;101164.84;1688246;84;21216;-79
2023/05/03 12:39:33;;;;;;;3.05;1.67;;;;;;;19.39;44.42;101166.34;1680740;84;21288;-79
2023/05/03 12:42:40;;;;;;;3.83;1.50;;;;;;;19.22;43.68;101157.57;1670095;86;21224;-79
2023/05/03 12:45:47;;;;;;;4.30;1.60;;;;;;;19.27;42.65;101161.94;1671319;86;21220;-79
2023/05/03 12:48:55;;;;;;;6.53;2.17;;;;;;;19.23;42.16;101159.81;1697933;84;21280;-79
2023/05/03 12:52:02;;;;;;;8.00;1.62;;;;;;;19.20;43.77;101153.32;1699649;84;21197;-79
2023/05/03 12:55:12;;;;;;;3.12;1.57;;;;;;;19.15;43.66;101142.86;1699692;84;21197;-79
2023/05/03 12:58:12;;;;;;;4.00;1.55;;;;;;;19.16;43.57;101148.72;1700476;84;21895;-79
2023/05/03 13:01:20;;;;;;;6.67;1.42;;;;;;;19.15;44.23;101148.41;1699021;84;21542;-79
2023/05/03 13:04:27;;;;;;;5.25;1.40;;;;;;;18.99;44.20;101141.87;1697498;84;21252;-79
2023/05/03 13:07:35;;;;;;;4.70;1.60;;;;;;;18.93;42.95;101141.34;1691811;84;21205;-79
2023/05/03 13:10:46;;;;;;;4.10;1.60;;;;;;;18.86;43.70;101134.38;1699273;84;21244;-79
2023/05/03 13:13:52;;;;;;;3.77;1.70;;;;;;;18.82;44.13;101134.48;1698476;84;21779;-79
2023/05/03 13:16:58;;;;;;;8.93;1.50;;;;;;;18.79;43.72;101134.92;1699272;84;21209;-79
2023/05/03 13:20:05;;;;;;;2.83;1.45;;;;;;;18.71;43.71;101131.80;1697992;84;21848;-79
2023/05/03 13:23:11;;;;;;;4.20;1.77;;;;;;;18.72;43.69;101128.50;1700375;81;21236;-79
2023/05/03 13:26:17;;;;;;;3.60;1.55;;;;;;;18.67;43.70;101126.32;1699558;84;21202;-79
2023/05/03 13:29:23;;;;;;;3.42;1.57;;;;;;;18.68;42.89;101134.09;1699918;84;21248;-79
2023/05/03 13:32:29;;;;;;;3.58;1.77;;;;;;;18.65;43.33;101131.23;1700040;84;21196;-79
2023/05/03 13:35:34;;;;;;;5.45;1.70;;;;;;;18.59;44.34;101133.47;1699882;84;21588;-79
2023/05/03 13:38:40;;;;;;;4.75;1.77;;;;;;;18.53;44.88;101132.89;1700100;84;21261;-79
2023/05/03 13:41:49;;;;;;;5.45;1.40;;;;;;;18.45;45.83;101135.34;1698727;84;21378;-79
2023/05/03 13:44:55;;;;;;;2.90;1.45;;;;;;;18.38;44.49;101126.14;1698712;84;21260;-79
2023/05/03 13:48:02;;;;;;;8.45;1.60;;;;;;;18.29;44.52;101133.77;1700138;84;21775;-79
2023/05/03 13:51:18;;;;;;;4.50;1.85;;;;;;;18.21;44.25;101129.83;1699420;84;21251;-79
2023/05/03 13:54:25;;;;;;;7.37;1.90;;;;;;;18.13;44.59;101132.23;1700224;84;21173;-79
2023/05/03 13:57:31;;;;;;;5.53;1.57;;;;;;;18.08;45.01;101126.99;1700155;84;21252;-79
2023/05/03 14:00:36;;;;;;;8.45;1.60;;;;;;;18.05;45.55;101122.70;1699191;84;21216;-79
2023/05/03 14:03:43;;;;;;;4.80;1.70;;;;;;;18.05;44.78;101124.63;1700020;84;21759;-79
2023/05/03 14:06:35;;;;;;;13.78;2.05;;;;;;;18.08;44.48;101118.15;1699404;84;21281;-79
2023/05/03 14:09:42;;;;;;;3.27;1.42;;;;;;;18.10;44.02;101117.94;1700022;84;21197;-79
2023/05/03 14:12:48;;;;;;;2.65;1.32;;;;;;;18.11;43.65;101114.09;1700127;84;21264;-79
2023/05/03 14:15:54;;;;;;;4.83;1.40;;;;;;;18.12;44.23;101107.53;1699993;84;21189;-79
2023/05/03 14:19:02;;;;;;;6.97;1.87;;;;;;;18.09;43.39;101110.70;1700108;84;21886;-78
2023/05/03 14:22:10;;;;;;;6.15;1.35;;;;;;;18.04;43.15;101105.78;1699039;84;21193;-78
2023/05/03 14:25:16;;;;;;;2.72;1.40;;;;;;;18.02;42.74;101107.91;1705864;81;21224;-78
2023/05/03 14:28:22;;;;;;;7.22;1.37;;;;;;;17.97;43.33;101110.41;1709341;84;21201;-78